Time;durP1;ratioP1;P1;durP2;ratioP2;P2;SDS_P1;SDS_P2;PMS_P1;PMS_P2;Temp;Humidity;BMP_temperature;BMP_pressure;BME280_temperature;BME280_humidity;BME280_pressure;Samples;Min_cycle;Max_cycle;Signal;HPM_P1;HPM_P2
2022/03/20 00:00:59;;;;;;;4.22;2.35;;;13.10;52.10;;;;;;5032742;28;20075;-59
2022/03/20 00:03:25;;;;;;;8.95;2.42;;;13.10;52.10;;;;;;5033326;28;20519;-59
2022/03/20 00:05:51;;;;;;;6.53;2.15;;;13.10;52.30;;;;;;5032935;28;20029;-66
2022/03/20 00:08:17;;;;;;;3.03;1.83;;;13.10;52.30;;;;;;5033192;28;20371;-71
2022/03/20 00:10:46;;;;;;;5.68;1.77;;;13.00;52.30;;;;;;5031924;28;20094;-65
2022/03/20 00:13:15;;;;;;;5.28;1.92;;;13.00;52.40;;;;;;5033275;28;20029;-62
2022/03/20 00:15:42;;;;;;;4.32;1.80;;;13.00;52.40;;;;;;5033024;28;20475;-71
2022/03/20 00:18:09;;;;;;;6.72;2.17;;;13.00;52.60;;;;;;5033157;28;20033;-62
2022/03/20 00:20:40;;;;;;;4.93;2.60;;;13.00;52.60;;;;;;5032007;28;20381;-60
2022/03/20 00:23:08;;;;;;;6.53;2.65;;;12.90;52.60;;;;;;5022782;28;20022;-73
2022/03/20 00:25:35;;;;;;;5.60;3.00;;;12.90;52.80;;;;;;5014494;28;20038;-69
2022/03/20 00:28:02;;;;;;;7.95;2.85;;;12.80;52.80;;;;;;5029393;28;20025;-73
2022/03/20 00:30:28;;;;;;;6.40;2.70;;;12.80;52.80;;;;;;5013148;28;20026;-59
2022/03/20 00:32:53;;;;;;;5.95;2.80;;;12.80;53.00;;;;;;5013320;28;20044;-59
2022/03/20 00:35:19;;;;;;;6.07;2.88;;;12.80;53.20;;;;;;5012448;28;20101;-59
2022/03/20 00:37:45;;;;;;;5.78;2.92;;;12.80;53.10;;;;;;5017393;28;20025;-59
2022/03/20 00:40:10;;;;;;;4.40;2.13;;;12.80;53.20;;;;;;5032701;28;20379;-60
2022/03/20 00:42:36;;;;;;;6.18;2.80;;;12.80;53.20;;;;;;5037278;28;20026;-59
2022/03/20 00:45:02;;;;;;;4.38;2.42;;;12.80;53.30;;;;;;5036885;28;20363;-59
2022/03/20 00:47:28;;;;;;;5.75;2.17;;;12.70;53.40;;;;;;5018956;28;20487;-67
2022/03/20 00:49:54;;;;;;;6.13;2.22;;;12.70;53.30;;;;;;5036628;28;20030;-60
2022/03/20 00:52:19;;;;;;;5.38;2.72;;;12.70;53.40;;;;;;5036664;28;20487;-62
2022/03/20 00:54:45;;;;;;;6.45;2.55;;;12.70;53.60;;;;;;5036859;28;20086;-63
2022/03/20 00:57:11;;;;;;;6.38;2.50;;;12.70;53.40;;;;;;5036590;28;20097;-62
2022/03/20 00:59:37;;;;;;;5.53;2.40;;;12.70;53.40;;;;;;5018725;28;20036;-70
2022/03/20 01:02:04;;;;;;;5.30;2.35;;;12.60;53.50;;;;;;5036532;28;20029;-72
2022/03/20 01:04:31;;;;;;;6.13;2.88;;;12.60;53.60;;;;;;5036657;28;20104;-67
2022/03/20 01:07:01;;;;;;;4.38;2.70;;;12.60;54.00;;;;;;5036742;28;20029;-68
2022/03/20 01:09:30;;;;;;;6.22;2.55;;;12.50;53.70;;;;;;5036099;28;20037;-70
2022/03/20 01:11:58;;;;;;;7.20;3.00;;;12.50;53.80;;;;;;5036214;28;20108;-69
2022/03/20 01:14:25;;;;;;;6.70;2.55;;;12.50;53.90;;;;;;5036643;28;20025;-71
2022/03/20 01:16:51;;;;;;;8.32;3.42;;;12.50;53.90;;;;;;5036411;28;20478;-72
2022/03/20 01:19:17;;;;;;;9.25;3.45;;;12.40;54.00;;;;;;5035550;28;20033;-68
2022/03/20 01:21:43;;;;;;;5.38;3.20;;;12.50;54.20;;;;;;5036087;28;20080;-68
2022/03/20 01:24:09;;;;;;;6.47;3.20;;;12.40;54.20;;;;;;5036393;28;20501;-71
2022/03/20 01:26:36;;;;;;;9.77;3.65;;;12.40;54.20;;;;;;5036110;28;20374;-69
2022/03/20 01:29:02;;;;;;;7.63;3.35;;;12.40;54.30;;;;;;5035960;28;20076;-72
2022/03/20 01:31:28;;;;;;;6.07;2.53;;;12.30;54.50;;;;;;5036281;28;20036;-72
2022/03/20 01:33:55;;;;;;;5.55;2.95;;;12.30;54.60;;;;;;5036026;28;20418;-71
2022/03/20 01:36:21;;;;;;;6.82;2.67;;;12.30;54.70;;;;;;5036044;28;20025;-68
2022/03/20 01:38:47;;;;;;;8.23;3.05;;;12.30;54.60;;;;;;5035863;28;20025;-70
2022/03/20 01:41:13;;;;;;;7.07;2.97;;;12.20;54.60;;;;;;5035897;28;20026;-72
2022/03/20 01:43:47;;;;;;;5.47;2.53;;;12.20;54.80;;;;;;5035949;28;20386;-72
2022/03/20 01:46:13;;;;;;;8.05;2.83;;;12.20;54.90;;;;;;5035553;28;20030;-72
2022/03/20 01:48:38;;;;;;;6.25;3.15;;;12.20;55.00;;;;;;5035768;28;20032;-73
2022/03/20 01:51:04;;;;;;;7.78;3.47;;;12.20;55.10;;;;;;5035191;28;20044;-65
2022/03/20 01:53:30;;;;;;;7.50;3.60;;;12.20;55.20;;;;;;5035417;28;20041;-67
2022/03/20 01:55:57;;;;;;;5.80;3.60;;;12.20;55.20;;;;;;5035600;28;20029;-72
2022/03/20 01:58:22;;;;;;;5.65;3.22;;;12.10;55.30;;;;;;5035537;28;20024;-73
2022/03/20 02:00:48;;;;;;;6.63;3.70;;;12.00;55.50;;;;;;5035614;28;20399;-74
2022/03/20 02:03:14;;;;;;;6.85;3.20;;;12.00;55.50;;;;;;5035242;28;20032;-70
2022/03/20 02:05:42;;;;;;;5.28;3.30;;;12.10;55.60;;;;;;5035425;28;20021;-72
2022/03/20 02:08:10;;;;;;;6.85;3.35;;;12.00;55.60;;;;;;5035519;28;20044;-68
2022/03/20 02:10:36;;;;;;;6.05;3.35;;;12.10;55.70;;;;;;5035505;28;20032;-69
2022/03/20 02:13:03;;;;;;;5.03;3.50;;;12.00;55.80;;;;;;5035662;28;20112;-68
2022/03/20 02:15:29;;;;;;;6.22;3.65;;;12.00;55.90;;;;;;5034859;28;20108;-69
2022/03/20 02:17:56;;;;;;;7.05;4.18;;;12.00;56.00;;;;;;5034880;28;20048;-71
2022/03/20 02:20:22;;;;;;;7.25;5.15;;;12.00;55.90;;;;;;5035337;28;20026;-70
2022/03/20 02:22:48;;;;;;;7.72;4.72;;;11.90;55.90;;;;;;5035310;28;20022;-71
2022/03/20 02:25:16;;;;;;;6.60;4.53;;;11.90;55.90;;;;;;5035048;28;20040;-63
2022/03/20 02:27:44;;;;;;;7.35;4.85;;;11.90;56.10;;;;;;5034861;28;20037;-60
2022/03/20 02:30:15;;;;;;;8.07;4.90;;;11.80;56.10;;;;;;5034935;28;20486;-60
2022/03/20 02:32:45;;;;;;;8.88;4.90;;;11.90;56.10;;;;;;5034856;28;20481;-60
2022/03/20 02:35:14;;;;;;;7.68;5.30;;;11.80;56.10;;;;;;5034663;28;20074;-60
2022/03/20 02:37:41;;;;;;;9.20;4.97;;;11.80;56.20;;;;;;5035169;28;20083;-60
2022/03/20 02:40:08;;;;;;;9.73;4.97;;;11.80;56.30;;;;;;5034755;28;20109;-59
2022/03/20 02:42:35;;;;;;;9.25;5.18;;;11.80;56.50;;;;;;5034842;28;20026;-60
2022/03/20 02:45:05;;;;;;;8.25;5.05;;;11.80;56.60;;;;;;5034894;28;20037;-61
2022/03/20 02:47:32;;;;;;;9.48;5.15;;;11.80;56.70;;;;;;5018980;28;20025;-58
2022/03/20 02:50:03;;;;;;;9.60;5.57;;;11.80;56.70;;;;;;5034493;28;20401;-64
2022/03/20 02:52:31;;;;;;;9.75;5.50;;;11.80;56.70;;;;;;5034883;28;20087;-59
2022/03/20 02:55:01;;;;;;;11.60;6.22;;;11.70;56.80;;;;;;5034844;28;20017;-59
2022/03/20 02:57:31;;;;;;;9.02;5.88;;;11.70;56.90;;;;;;5034378;28;20033;-59
2022/03/20 03:00:00;;;;;;;10.18;5.80;;;11.70;57.00;;;;;;5034463;28;20060;-59
2022/03/20 03:02:29;;;;;;;8.50;6.47;;;11.70;57.20;;;;;;5034122;28;20033;-59
2022/03/20 03:04:59;;;;;;;7.85;6.28;;;11.60;57.30;;;;;;5034293;28;20381;-60
2022/03/20 03:07:29;;;;;;;9.82;6.03;;;11.60;57.50;;;;;;5033785;28;20096;-59
2022/03/20 03:12:40;;;;;;;9.60;6.78;;;11.60;57.70;;;;;;5034241;28;20040;-60
2022/03/20 03:15:21;;;;;;;13.15;6.90;;;11.50;57.80;;;;;;5034000;28;20025;-60
2022/03/20 03:17:48;;;;;;;9.50;6.55;;;11.40;58.10;;;;;;5033988;28;20025;-59
2022/03/20 03:20:14;;;;;;;9.45;6.20;;;11.50;58.20;;;;;;5034378;28;20033;-65
2022/03/20 03:22:40;;;;;;;10.23;6.70;;;11.50;58.10;;;;;;5034133;28;20021;-63
2022/03/20 03:25:06;;;;;;;10.57;7.38;;;11.50;58.20;;;;;;5034122;28;20120;-63
2022/03/20 03:27:33;;;;;;;14.80;8.50;;;11.50;58.10;;;;;;5033303;28;20498;-65
2022/03/20 03:29:58;;;;;;;12.88;7.90;;;11.50;58.10;;;;;;5033458;28;20041;-71
2022/03/20 03:32:24;;;;;;;11.48;8.55;;;11.40;58.50;;;;;;5034195;28;20021;-64
2022/03/20 03:37:36;;;;;;;13.63;8.73;;;11.40;58.30;;;;;;5033925;28;20064;-59
2022/03/20 03:40:04;;;;;;;13.90;8.95;;;11.40;58.30;;;;;;5034009;28;20470;-60
2022/03/20 03:42:30;;;;;;;12.35;8.75;;;11.40;58.20;;;;;;5033851;28;20029;-63
2022/03/20 03:44:59;;;;;;;12.25;9.68;;;11.40;58.10;;;;;;5026733;28;20061;-59
2022/03/20 03:47:25;;;;;;;13.80;9.75;;;11.30;58.30;;;;;;5012022;28;20363;-66
2022/03/20 03:49:51;;;;;;;13.45;9.93;;;11.30;58.10;;;;;;5033164;28;20501;-61
2022/03/20 03:52:17;;;;;;;13.00;9.65;;;11.30;58.00;;;;;;5033343;28;20026;-59
2022/03/20 03:54:42;;;;;;;15.93;11.13;;;11.30;57.90;;;;;;5033423;28;20040;-59
2022/03/20 03:57:09;;;;;;;14.18;10.60;;;11.30;57.90;;;;;;5033380;28;20021;-59
2022/03/20 03:59:34;;;;;;;18.13;11.55;;;11.20;57.90;;;;;;5032651;28;20041;-62
2022/03/20 04:02:00;;;;;;;15.07;12.18;;;11.20;57.90;;;;;;5033605;28;20017;-67
2022/03/20 04:04:27;;;;;;;15.18;11.25;;;11.20;57.80;;;;;;5033175;28;20375;-72
2022/03/20 04:06:54;;;;;;;17.40;12.40;;;11.20;57.80;;;;;;5033033;28;20478;-69
2022/03/20 04:09:20;;;;;;;15.98;12.50;;;11.10;57.90;;;;;;5032794;28;20455;-70
2022/03/20 04:11:45;;;;;;;14.70;11.68;;;11.10;58.50;;;;;;5033125;28;20083;-68
2022/03/20 04:14:11;;;;;;;16.48;12.07;;;11.20;57.80;;;;;;5032366;28;20151;-70
2022/03/20 04:16:37;;;;;;;15.48;12.02;;;11.20;57.70;;;;;;5032662;28;20032;-69
2022/03/20 04:19:02;;;;;;;15.93;11.68;;;11.20;57.60;;;;;;5032905;28;20029;-64
2022/03/20 04:21:29;;;;;;;15.15;12.27;;;11.20;57.60;;;;;;5033105;28;20018;-59
2022/03/20 04:23:55;;;;;;;16.90;13.02;;;11.30;57.20;;;;;;5033022;28;20536;-59
2022/03/20 04:26:22;;;;;;;16.25;12.88;;;11.30;57.20;;;;;;5032830;28;20025;-60
2022/03/20 04:28:49;;;;;;;15.70;12.63;;;11.20;57.10;;;;;;5032478;28;20045;-60
2022/03/20 04:31:15;;;;;;;16.75;12.82;;;11.20;57.10;;;;;;5032687;28;20079;-59
2022/03/20 04:33:44;;;;;;;15.20;12.45;;;11.20;57.10;;;;;;5033163;28;20060;-59
2022/03/20 04:36:10;;;;;;;15.95;12.63;;;11.30;57.10;;;;;;5014560;28;20084;-58
2022/03/20 04:38:36;;;;;;;15.73;13.43;;;11.20;57.00;;;;;;5032512;28;20036;-60
2022/03/20 04:41:02;;;;;;;17.33;14.13;;;11.10;57.00;;;;;;5014903;28;20402;-59
2022/03/20 04:43:28;;;;;;;18.10;13.60;;;11.20;57.00;;;;;;5032576;28;20036;-60
2022/03/20 04:45:54;;;;;;;17.65;14.00;;;11.10;56.80;;;;;;5032864;28;20033;-59
2022/03/20 04:59:17;;;;;;;18.33;15.32;;;11.10;56.90;;;;;;5032778;28;20375;-58
2022/03/20 05:01:43;;;;;;;18.67;14.82;;;11.00;56.80;;;;;;5032725;28;20026;-58
2022/03/20 05:04:08;;;;;;;16.85;14.63;;;11.00;56.90;;;;;;5032757;28;20037;-59
2022/03/20 05:06:34;;;;;;;19.80;15.48;;;11.00;56.90;;;;;;5032473;28;20022;-59
2022/03/20 05:14:29;;;;;;;18.52;15.02;;;11.00;57.10;;;;;;5032684;28;20501;-59
2022/03/20 05:16:54;;;;;;;20.05;16.27;;;10.90;57.00;;;;;;5032503;28;20029;-59
2022/03/20 05:19:20;;;;;;;20.02;15.32;;;10.90;57.00;;;;;;5032314;28;20052;-59
2022/03/20 05:21:47;;;;;;;20.75;15.52;;;10.90;57.00;;;;;;5032467;28;20108;-59
2022/03/20 05:24:13;;;;;;;18.10;14.95;;;10.90;57.00;;;;;;5032354;28;20418;-59
2022/03/20 05:26:39;;;;;;;19.27;15.48;;;10.90;57.10;;;;;;5033991;28;20028;-59
2022/03/20 05:29:05;;;;;;;19.13;15.45;;;10.80;57.00;;;;;;5036330;28;20454;-59
2022/03/20 05:31:31;;;;;;;18.27;16.33;;;10.90;57.00;;;;;;5018384;28;20079;-59
2022/03/20 05:33:58;;;;;;;20.65;16.55;;;10.90;57.00;;;;;;5036221;28;20021;-59
2022/03/20 05:36:28;;;;;;;21.40;16.63;;;10.80;57.10;;;;;;5035845;28;20033;-58
2022/03/20 05:38:58;;;;;;;19.48;15.68;;;10.80;57.20;;;;;;5021405;28;20064;-59
2022/03/20 05:44:11;;;;;;;20.00;15.93;;;10.80;57.20;;;;;;5036162;28;20079;-59
2022/03/20 05:46:37;;;;;;;21.38;16.70;;;10.70;57.10;;;;;;5035560;28;20021;-58
2022/03/20 05:49:05;;;;;;;17.00;14.90;;;10.80;57.20;;;;;;5036069;28;20029;-60
2022/03/20 05:51:31;;;;;;;20.13;16.90;;;10.80;57.30;;;;;;5035786;28;20038;-59
2022/03/20 05:53:57;;;;;;;22.08;16.30;;;10.80;57.20;;;;;;5035620;28;20155;-66
2022/03/20 05:59:08;;;;;;;22.95;16.65;;;10.70;57.10;;;;;;5021235;28;20079;-69
2022/03/20 06:01:34;;;;;;;20.92;17.02;;;10.70;57.30;;;;;;5032438;28;20029;-59
2022/03/20 06:04:00;;;;;;;19.17;16.02;;;10.70;57.40;;;;;;5021525;28;20467;-61
2022/03/20 06:06:26;;;;;;;20.55;16.65;;;10.60;57.40;;;;;;5014129;28;20463;-62
2022/03/20 06:08:52;;;;;;;22.45;15.50;;;10.70;58.10;;;;;;5033219;28;20030;-66
2022/03/20 06:11:17;;;;;;;20.98;17.05;;;10.60;57.40;;;;;;5035414;28;20033;-58
2022/03/20 06:13:45;;;;;;;23.10;17.25;;;10.60;57.50;;;;;;5035536;28;20080;-58
2022/03/20 06:16:12;;;;;;;20.30;17.23;;;10.60;57.50;;;;;;5035640;28;20021;-59
2022/03/20 06:18:42;;;;;;;23.70;17.48;;;10.60;57.60;;;;;;5035344;28;20394;-58
2022/03/20 06:21:09;;;;;;;23.33;17.95;;;10.50;57.70;;;;;;5027199;28;20478;-59
2022/03/20 06:23:35;;;;;;;21.60;17.27;;;10.60;57.70;;;;;;5034917;28;20045;-62
2022/03/20 06:26:01;;;;;;;23.80;17.85;;;10.60;57.70;;;;;;5035404;28;20036;-59
2022/03/20 06:28:27;;;;;;;22.40;18.02;;;10.50;57.70;;;;;;5034738;28;20034;-61
2022/03/20 06:30:53;;;;;;;21.45;16.55;;;10.50;57.70;;;;;;5034923;28;20409;-64
2022/03/20 06:33:19;;;;;;;22.88;18.27;;;10.50;57.70;;;;;;5035168;28;20021;-59
2022/03/20 06:35:44;;;;;;;20.60;17.35;;;10.50;57.70;;;;;;5035175;28;20078;-60
2022/03/20 06:38:10;;;;;;;24.15;17.52;;;10.60;57.70;;;;;;5034177;28;20027;-61
2022/03/20 06:40:36;;;;;;;23.95;17.92;;;10.50;57.80;;;;;;5034593;28;20060;-59
2022/03/20 06:43:01;;;;;;;21.80;17.38;;;10.50;57.80;;;;;;5034575;28;20026;-60
2022/03/20 06:45:27;;;;;;;21.30;18.48;;;10.50;57.80;;;;;;5034901;28;20033;-61
2022/03/20 06:47:53;;;;;;;24.20;18.60;;;10.50;57.90;;;;;;5034277;28;20021;-61
2022/03/20 06:50:19;;;;;;;24.10;18.38;;;10.50;57.90;;;;;;5034890;28;20479;-59
2022/03/20 06:52:44;;;;;;;20.75;17.95;;;10.50;57.90;;;;;;5034522;28;20066;-60
2022/03/20 06:55:13;;;;;;;20.60;17.38;;;10.50;57.90;;;;;;5034899;28;20483;-62
2022/03/20 06:57:43;;;;;;;28.90;19.17;;;10.50;57.90;;;;;;5034560;28;20017;-68
2022/03/20 07:00:11;;;;;;;22.30;18.13;;;10.50;57.80;;;;;;5034061;28;20156;-68
2022/03/20 07:02:36;;;;;;;24.15;18.65;;;10.50;57.80;;;;;;5034297;28;20112;-62
2022/03/20 07:05:03;;;;;;;21.30;17.80;;;10.50;57.90;;;;;;5034621;28;20116;-65
2022/03/20 07:07:28;;;;;;;21.77;18.60;;;10.50;58.00;;;;;;5034298;28;20083;-62
2022/03/20 07:09:54;;;;;;;24.23;18.98;;;10.50;57.90;;;;;;5032991;28;20033;-68
2022/03/20 07:12:20;;;;;;;21.00;18.48;;;10.40;57.90;;;;;;5034144;28;20036;-60
2022/03/20 07:14:46;;;;;;;24.23;18.83;;;10.40;58.00;;;;;;5034477;28;20029;-61
2022/03/20 07:17:16;;;;;;;23.65;18.10;;;10.40;58.00;;;;;;5034283;28;20489;-63
2022/03/20 07:19:43;;;;;;;24.33;19.35;;;10.40;58.00;;;;;;5033748;28;20470;-68
2022/03/20 07:22:14;;;;;;;25.23;18.73;;;10.40;58.10;;;;;;5033651;28;20116;-64
2022/03/20 07:24:42;;;;;;;21.88;18.35;;;10.40;58.00;;;;;;5034030;28;20036;-71
2022/03/20 07:29:57;;;;;;;25.65;19.02;;;10.40;58.00;;;;;;5029269;28;20044;-68
2022/03/20 07:32:23;;;;;;;21.95;19.60;;;10.40;57.80;;;;;;5030206;28;20053;-70
2022/03/20 07:34:50;;;;;;;24.90;20.75;;;10.40;57.90;;;;;;5018379;28;20026;-69
2022/03/20 07:37:17;;;;;;;22.52;20.00;;;10.30;57.90;;;;;;5013904;28;20457;-71
2022/03/20 07:39:48;;;;;;;24.00;19.77;;;10.30;57.90;;;;;;5023139;28;20352;-69
2022/03/20 07:42:14;;;;;;;24.27;19.58;;;10.30;58.00;;;;;;5025752;28;20034;-67
2022/03/20 07:44:40;;;;;;;23.75;19.83;;;10.40;58.00;;;;;;5029083;28;20033;-68
2022/03/20 07:47:08;;;;;;;24.02;20.73;;;10.30;58.00;;;;;;5028976;28;20066;-63
2022/03/20 07:49:36;;;;;;;27.80;20.27;;;10.30;58.90;;;;;;5022789;28;20472;-62
2022/03/20 07:52:02;;;;;;;26.33;21.48;;;10.30;58.30;;;;;;5032083;28;20493;-63
2022/03/20 07:54:28;;;;;;;22.73;19.60;;;10.20;58.30;;;;;;5033153;28;20025;-63
2022/03/20 07:56:54;;;;;;;28.85;19.95;;;10.20;58.40;;;;;;5033318;28;20140;-65
2022/03/20 07:59:20;;;;;;;29.05;20.38;;;10.20;58.40;;;;;;5033558;28;20049;-61
2022/03/20 08:01:46;;;;;;;22.95;20.25;;;10.00;58.70;;;;;;5033502;28;20497;-62
2022/03/20 08:04:11;;;;;;;26.08;20.25;;;10.00;58.50;;;;;;5033465;28;20095;-65
2022/03/20 08:06:37;;;;;;;23.88;20.85;;;9.90;58.70;;;;;;5033030;28;20021;-62
2022/03/20 08:09:03;;;;;;;25.95;21.42;;;9.80;59.00;;;;;;5033421;28;20033;-61
2022/03/20 08:11:29;;;;;;;25.23;21.13;;;9.60;61.20;;;;;;5032108;28;20422;-68
2022/03/20 08:13:57;;;;;;;27.23;22.55;;;9.40;63.90;;;;;;5032655;28;20504;-59
2022/03/20 08:16:25;;;;;;;26.80;23.70;;;9.50;65.50;;;;;;5030358;28;20128;-61
2022/03/20 08:18:56;;;;;;;26.83;24.05;;;9.60;67.50;;;;;;5032837;28;20076;-61
2022/03/20 08:21:22;;;;;;;28.88;24.95;;;9.30;69.90;;;;;;5032553;28;20064;-62
2022/03/20 08:23:48;;;;;;;27.17;23.88;;;9.50;70.40;;;;;;5023963;28;20286;-69
2022/03/20 08:26:14;;;;;;;28.90;24.70;;;9.50;70.60;;;;;;5030590;28;20026;-67
2022/03/20 08:28:44;;;;;;;29.75;24.00;;;9.60;71.00;;;;;;5014203;28;20364;-63
2022/03/20 08:31:09;;;;;;;29.13;26.00;;;9.70;71.10;;;;;;5032792;28;20500;-63
2022/03/20 08:33:36;;;;;;;28.48;24.13;;;9.60;71.50;;;;;;5014760;28;20044;-60
2022/03/20 08:36:03;;;;;;;27.60;24.55;;;9.70;72.10;;;;;;5000008;28;20064;-60
2022/03/20 08:38:29;;;;;;;28.50;25.50;;;9.70;71.90;;;;;;5022506;28;20371;-59
2022/03/20 08:40:55;;;;;;;28.80;24.63;;;9.80;71.70;;;;;;5031386;28;20038;-67
2022/03/20 08:43:21;;;;;;;28.98;24.85;;;9.80;71.80;;;;;;5027025;28;20026;-61
2022/03/20 08:45:47;;;;;;;28.52;24.88;;;9.80;71.90;;;;;;5028607;28;20045;-60
2022/03/20 08:48:13;;;;;;;31.65;25.60;;;9.80;72.60;;;;;;5030233;28;20021;-59
2022/03/20 08:50:39;;;;;;;27.35;24.23;;;9.90;72.00;;;;;;5028042;28;20527;-58
2022/03/20 08:53:05;;;;;;;30.20;25.60;;;9.90;71.70;;;;;;5025773;28;20021;-61
2022/03/20 08:55:33;;;;;;;27.35;23.83;;;9.90;71.60;;;;;;5030414;28;20022;-61
2022/03/20 08:57:59;;;;;;;28.83;24.00;;;9.90;72.30;;;;;;5030592;28;20021;-63
2022/03/20 09:00:26;;;;;;;27.65;24.63;;;10.00;72.60;;;;;;5027619;28;20025;-60
2022/03/20 09:02:53;;;;;;;26.73;23.10;;;10.00;71.90;;;;;;5027578;28;20026;-66
2022/03/20 09:05:20;;;;;;;25.75;22.13;;;10.10;72.20;;;;;;5032063;28;20482;-61
2022/03/20 09:07:48;;;;;;;27.35;22.90;;;10.10;72.20;;;;;;5026173;28;20053;-60
2022/03/20 09:10:15;;;;;;;33.20;24.38;;;10.10;71.50;;;;;;5027464;28;20656;-66
2022/03/20 09:12:43;;;;;;;33.13;24.73;;;10.10;70.90;;;;;;5031004;28;21606;-66
2022/03/20 09:15:13;;;;;;;30.58;24.50;;;10.10;71.30;;;;;;5031990;28;20084;-67
2022/03/20 09:20:24;;;;;;;31.63;26.00;;;10.10;71.90;;;;;;5029480;28;20406;-68
2022/03/20 09:22:50;;;;;;;28.70;24.58;;;10.20;72.10;;;;;;5029568;28;20518;-64
2022/03/20 09:25:16;;;;;;;30.83;23.45;;;10.10;72.60;;;;;;5031484;28;20037;-61
2022/03/20 09:27:41;;;;;;;33.22;25.55;;;10.10;73.20;;;;;;5026337;28;20392;-63
2022/03/20 09:30:07;;;;;;;37.97;25.75;;;10.20;72.70;;;;;;5030923;28;20544;-62
2022/03/20 09:32:33;;;;;;;29.65;24.52;;;10.30;72.10;;;;;;5030372;28;20038;-61
2022/03/20 09:34:59;;;;;;;34.67;25.13;;;10.30;72.60;;;;;;5023106;28;20079;-60
2022/03/20 09:37:24;;;;;;;27.00;23.20;;;10.40;72.50;;;;;;5030368;28;20550;-62
2022/03/20 09:39:50;;;;;;;29.02;25.13;;;10.40;72.70;;;;;;5028013;28;20037;-63
2022/03/20 09:42:19;;;;;;;27.95;24.27;;;10.50;72.40;;;;;;5032290;28;20082;-68
2022/03/20 09:44:45;;;;;;;26.92;22.38;;;10.50;71.90;;;;;;5032458;28;20029;-62
2022/03/20 09:47:17;;;;;;;29.92;23.17;;;10.50;71.70;;;;;;5032699;28;20470;-60
2022/03/20 09:49:44;;;;;;;30.48;21.90;;;10.60;71.60;;;;;;5033720;28;20078;-61
2022/03/20 09:52:10;;;;;;;26.50;23.20;;;10.60;72.20;;;;;;5017847;28;20035;-62
2022/03/20 09:54:36;;;;;;;26.98;24.02;;;10.70;71.80;;;;;;5030543;28;20018;-60
2022/03/20 09:57:07;;;;;;;25.05;22.35;;;10.70;71.10;;;;;;5009149;28;20540;-66
2022/03/20 09:59:34;;;;;;;27.55;24.02;;;10.80;71.70;;;;;;5029137;28;20087;-64
2022/03/20 10:02:05;;;;;;;29.42;24.42;;;10.80;69.70;;;;;;5005664;28;20013;-60
2022/03/20 10:04:33;;;;;;;27.45;24.27;;;10.80;70.50;;;;;;5031256;28;20052;-61
2022/03/20 10:06:58;;;;;;;27.88;24.40;;;10.90;69.60;;;;;;5019532;28;20068;-61
2022/03/20 10:09:24;;;;;;;26.30;22.58;;;10.80;69.10;;;;;;5032493;28;20033;-60
2022/03/20 10:11:52;;;;;;;29.20;24.48;;;10.90;68.90;;;;;;5019690;28;20080;-59
2022/03/20 10:14:26;;;;;;;28.20;23.92;;;10.90;68.50;;;;;;5017443;28;20455;-59
2022/03/20 10:17:13;;;;;;;29.52;24.23;;;10.90;68.30;;;;;;5018412;28;20018;-61
2022/03/20 10:19:40;;;;;;;27.17;22.73;;;11.00;67.40;;;;;;5032561;28;20105;-60
2022/03/20 10:22:10;;;;;;;28.40;24.58;;;11.00;68.10;;;;;;5032790;28;20037;-60
2022/03/20 10:24:38;;;;;;;30.02;24.13;;;11.00;67.50;;;;;;5032721;28;20042;-60
2022/03/20 10:27:05;;;;;;;30.05;24.08;;;11.00;67.10;;;;;;5032961;28;20125;-61
2022/03/20 10:29:32;;;;;;;26.75;23.55;;;11.10;67.10;;;;;;5031564;28;20108;-60
2022/03/20 10:32:16;;;;;;;26.55;21.63;;;11.10;66.50;;;;;;5033002;28;20021;-59
2022/03/20 10:34:49;;;;;;;25.20;21.42;;;11.10;68.70;;;;;;5021896;28;20033;-64
2022/03/20 10:37:16;;;;;;;30.63;24.95;;;11.10;69.60;;;;;;5028469;28;20060;-59
2022/03/20 10:39:42;;;;;;;26.73;23.20;;;11.30;67.00;;;;;;5020553;28;20025;-60
2022/03/20 10:42:14;;;;;;;27.30;24.40;;;11.30;67.10;;;;;;5032471;28;20044;-61
2022/03/20 10:44:41;;;;;;;26.50;23.65;;;11.30;66.50;;;;;;5028998;28;20068;-59
2022/03/20 10:47:13;;;;;;;30.13;24.40;;;11.30;65.70;;;;;;5027333;28;20059;-61
2022/03/20 10:49:39;;;;;;;;;;;11.40;66.10;;;;;;5028401;28;20025;-61
2022/03/20 10:52:10;;;;;;;25.80;22.58;;;11.30;65.60;;;;;;5032169;28;20357;-64
2022/03/20 10:54:44;;;;;;;27.02;24.13;;;11.30;66.40;;;;;;5032164;28;20072;-61
2022/03/20 10:57:12;;;;;;;29.77;25.65;;;11.30;65.60;;;;;;5032050;28;20101;-58
2022/03/20 10:59:40;;;;;;;28.40;22.63;;;11.30;65.50;;;;;;5030676;28;20072;-59
2022/03/20 11:02:19;;;;;;;21.77;18.77;;;11.30;66.60;;;;;;5031337;28;20024;-64
2022/03/20 11:04:45;;;;;;;28.25;23.33;;;11.40;67.80;;;;;;5028949;28;20041;-61
2022/03/20 11:07:16;;;;;;;29.23;23.15;;;11.50;65.20;;;;;;5031917;28;20022;-61
2022/03/20 11:09:52;;;;;;;25.60;21.70;;;11.50;65.70;;;;;;5031938;28;20462;-59
2022/03/20 11:12:29;;;;;;;25.40;22.70;;;11.50;67.40;;;;;;5017911;28;20021;-60
2022/03/20 11:14:58;;;;;;;27.48;24.08;;;11.60;66.60;;;;;;5014131;28;20121;-59
2022/03/20 11:17:27;;;;;;;26.60;23.40;;;11.60;65.80;;;;;;5019425;28;20017;-59
2022/03/20 11:19:54;;;;;;;26.60;23.70;;;11.60;65.90;;;;;;5026538;28;20478;-61
2022/03/20 11:22:21;;;;;;;27.85;24.83;;;11.70;65.40;;;;;;5020847;28;20555;-60
2022/03/20 11:24:50;;;;;;;26.77;23.70;;;11.80;65.00;;;;;;5029824;28;20041;-60
2022/03/20 11:27:41;;;;;;;27.10;24.05;;;11.80;65.70;;;;;;5019951;28;20072;-59
2022/03/20 11:30:07;;;;;;;29.80;24.27;;;11.80;65.60;;;;;;5029957;28;20398;-60
2022/03/20 11:32:35;;;;;;;30.25;25.27;;;11.90;64.50;;;;;;5029195;28;20037;-68
2022/03/20 11:35:05;;;;;;;29.40;26.25;;;11.90;64.20;;;;;;5030941;28;20486;-63
2022/03/20 11:37:50;;;;;;;31.25;26.13;;;11.90;64.10;;;;;;5030142;28;20037;-62
2022/03/20 11:40:22;;;;;;;27.08;24.23;;;12.00;63.60;;;;;;5030570;28;20029;-73
2022/03/20 11:42:49;;;;;;;23.67;20.75;;;12.00;63.40;;;;;;5031993;28;20029;-71
2022/03/20 11:45:20;;;;;;;26.15;20.77;;;12.00;65.80;;;;;;5029433;28;20029;-66
2022/03/20 11:48:10;;;;;;;24.60;21.50;;;12.00;65.70;;;;;;5031092;28;20057;-61
2022/03/20 11:50:47;;;;;;;26.42;22.10;;;12.10;66.80;;;;;;5016636;28;20042;-60
2022/03/20 11:53:25;;;;;;;26.50;23.70;;;12.20;64.70;;;;;;5021583;28;20486;-65
2022/03/20 11:55:51;;;;;;;39.75;31.92;;;12.30;62.40;;;;;;5032628;28;20029;-66
2022/03/20 11:58:17;;;;;;;28.05;24.35;;;12.30;61.20;;;;;;5026700;28;20474;-59
2022/03/20 12:00:44;;;;;;;21.17;17.88;;;12.30;62.80;;;;;;5030906;28;20053;-59
2022/03/20 12:03:13;;;;;;;24.63;22.02;;;12.40;67.10;;;;;;5032048;28;20036;-58
2022/03/20 12:05:42;;;;;;;22.02;18.02;;;12.50;65.10;;;;;;5014228;28;20508;-54
2022/03/20 12:08:34;;;;;;;26.20;22.75;;;12.60;65.10;;;;;;5013281;28;20084;-62
2022/03/20 12:11:16;;;;;;;26.60;23.70;;;12.70;63.80;;;;;;5022429;28;20082;-68
2022/03/20 12:13:59;;;;;;;27.40;24.55;;;12.60;61.80;;;;;;5029770;28;20021;-66
2022/03/20 12:16:52;;;;;;;28.25;25.23;;;12.60;61.40;;;;;;5031384;28;20060;-69
2022/03/20 12:19:19;;;;;;;;;;;12.60;61.70;;;;;;5026874;28;20029;-66
2022/03/20 12:21:58;;;;;;;26.48;23.67;;;12.60;61.10;;;;;;5031027;28;19909;-67
2022/03/20 12:24:36;;;;;;;28.83;25.63;;;12.60;61.10;;;;;;5032288;28;20065;-66
2022/03/20 12:27:29;;;;;;;28.85;25.85;;;12.60;61.20;;;;;;5008628;28;20389;-64
2022/03/20 12:30:13;;;;;;;27.65;24.67;;;12.60;61.40;;;;;;5013835;28;20046;-60
2022/03/20 12:32:48;;;;;;;28.08;25.20;;;12.60;61.90;;;;;;5022167;28;20371;-59
2022/03/20 12:35:24;;;;;;;33.83;30.25;;;12.60;62.30;;;;;;5030558;28;20030;-60
2022/03/20 12:37:52;;;;;;;34.72;31.15;;;12.60;62.30;;;;;;5026946;28;20033;-63
2022/03/20 12:40:32;;;;;;;31.73;28.58;;;12.60;62.10;;;;;;5030688;28;20093;-61
2022/03/20 12:43:10;;;;;;;24.10;21.38;;;12.70;62.30;;;;;;5031151;28;20033;-61
2022/03/20 12:45:39;;;;;;;29.02;24.95;;;12.80;64.60;;;;;;5031000;28;20475;-59
2022/03/20 12:48:10;;;;;;;30.45;27.33;;;12.80;62.60;;;;;;5031594;28;20029;-61
2022/03/20 12:50:37;;;;;;;30.80;27.50;;;12.80;61.40;;;;;;5027478;28;20112;-57
2022/03/20 12:53:09;;;;;;;29.88;26.67;;;12.80;61.40;;;;;;5029890;28;20037;-65
2022/03/20 12:55:37;;;;;;;29.97;26.90;;;12.80;61.20;;;;;;5029193;28;20108;-62
2022/03/20 12:58:03;;;;;;;30.75;27.65;;;12.80;62.10;;;;;;5012538;28;20316;-61
2022/03/20 13:00:35;;;;;;;31.13;28.00;;;12.90;61.90;;;;;;5024990;28;20049;-58
2022/03/20 13:03:15;;;;;;;31.80;28.53;;;12.90;61.50;;;;;;5013348;28;20534;-60
2022/03/20 13:05:50;;;;;;;32.05;28.80;;;12.90;61.60;;;;;;5031485;28;20506;-59
2022/03/20 13:08:21;;;;;;;31.67;27.95;;;12.90;61.50;;;;;;5031099;28;20459;-69
2022/03/20 13:10:48;;;;;;;30.17;26.20;;;12.90;62.10;;;;;;5026978;28;20030;-64